Time;durP1;ratioP1;P1;durP2;ratioP2;P2;SDS_P1;SDS_P2;PMS_P1;PMS_P2;Temp;Humidity;BMP_temperature;BMP_pressure;BME280_temperature;BME280_humidity;BME280_pressure;Samples;Min_cycle;Max_cycle;Signal;HPM_P1;HPM_P2
2022/09/21 00:00:41;;;;;;;6.65;2.40;;;8.30;99.90;;;;;;5025777;28;20110;-72
2022/09/21 00:03:08;;;;;;;8.23;2.60;;;8.30;99.90;;;;;;5012646;28;20092;-71
2022/09/21 00:05:34;;;;;;;7.72;3.67;;;8.30;99.90;;;;;;5025529;28;20041;-72
2022/09/21 00:08:05;;;;;;;8.32;2.95;;;8.30;99.90;;;;;;5027309;28;20029;-72
2022/09/21 00:10:32;;;;;;;5.73;2.80;;;8.20;99.90;;;;;;5022886;28;20052;-72
2022/09/21 00:12:59;;;;;;;6.95;3.28;;;8.20;99.90;;;;;;5026567;28;20052;-71
2022/09/21 00:15:25;;;;;;;7.30;2.70;;;8.20;99.90;;;;;;5026107;28;20510;-72
2022/09/21 00:17:55;;;;;;;7.18;2.40;;;8.20;99.90;;;;;;5025522;28;20469;-72
2022/09/21 00:20:23;;;;;;;6.80;2.60;;;8.10;99.90;;;;;;5058413;28;20073;-73
2022/09/21 00:22:50;;;;;;;8.75;2.88;;;8.10;99.90;;;;;;5044502;28;20042;-72
2022/09/21 00:25:17;;;;;;;7.32;2.75;;;8.10;99.90;;;;;;5026595;28;20065;-72
2022/09/21 00:27:43;;;;;;;7.68;2.92;;;8.10;99.90;;;;;;5041273;28;20057;-72
2022/09/21 00:30:10;;;;;;;10.05;2.95;;;8.00;99.90;;;;;;5026661;28;20053;-72
2022/09/21 00:32:38;;;;;;;7.22;2.83;;;8.00;99.90;;;;;;5041996;28;20449;-72
2022/09/21 00:35:06;;;;;;;11.07;2.90;;;8.00;99.90;;;;;;5007529;28;20042;-72
2022/09/21 00:37:33;;;;;;;5.32;2.45;;;7.90;99.90;;;;;;5025534;28;20064;-72
2022/09/21 00:39:59;;;;;;;6.18;2.42;;;7.90;99.90;;;;;;5024516;28;20580;-72
2022/09/21 00:42:28;;;;;;;7.95;2.92;;;7.90;99.90;;;;;;5026007;28;20033;-72
2022/09/21 00:44:57;;;;;;;5.55;2.58;;;7.90;99.90;;;;;;5056069;28;20049;-72
2022/09/21 00:47:39;;;;;;;6.82;2.70;;;7.90;99.90;;;;;;5025010;28;20092;-72
2022/09/21 00:50:08;;;;;;;9.93;3.20;;;7.90;99.90;;;;;;5025951;28;20107;-72
2022/09/21 00:52:39;;;;;;;8.05;2.58;;;7.90;99.90;;;;;;5025117;28;20033;-72
2022/09/21 00:55:10;;;;;;;8.55;2.42;;;7.90;99.90;;;;;;5025450;28;20520;-72
2022/09/21 00:57:37;;;;;;;7.47;2.63;;;7.80;99.90;;;;;;5059023;28;20391;-72
2022/09/21 01:00:09;;;;;;;6.45;2.60;;;7.80;99.90;;;;;;5024607;28;20120;-73
2022/09/21 01:02:37;;;;;;;11.88;2.50;;;7.80;99.90;;;;;;5026661;28;20060;-72
2022/09/21 01:05:06;;;;;;;7.57;2.80;;;7.80;99.90;;;;;;5037885;28;20104;-72
2022/09/21 01:07:35;;;;;;;6.28;2.80;;;7.80;99.90;;;;;;5026035;28;20160;-71
2022/09/21 01:10:08;;;;;;;7.18;2.55;;;7.80;99.90;;;;;;5026420;28;20037;-72
2022/09/21 01:13:13;;;;;;;6.63;2.50;;;7.80;99.90;;;;;;5040918;28;20052;-72
2022/09/21 01:15:56;;;;;;;8.13;2.65;;;7.70;99.90;;;;;;5013780;28;20049;-73
2022/09/21 01:18:37;;;;;;;10.45;2.90;;;7.70;99.90;;;;;;5038926;28;20068;-72
2022/09/21 01:21:19;;;;;;;7.05;2.78;;;7.80;99.90;;;;;;5055293;28;20410;-72
2022/09/21 01:23:56;;;;;;;7.00;2.50;;;7.70;99.90;;;;;;5023656;28;20045;-73
2022/09/21 01:26:31;;;;;;;7.97;2.83;;;7.70;99.90;;;;;;5040689;28;20056;-72
2022/09/21 01:29:06;;;;;;;8.20;2.58;;;7.70;99.90;;;;;;5007282;28;20607;-72
2022/09/21 01:31:40;;;;;;;5.15;2.53;;;7.70;99.90;;;;;;5058040;28;20407;-72
2022/09/21 01:34:17;;;;;;;8.25;2.60;;;7.70;99.90;;;;;;5024956;28;20061;-72
2022/09/21 01:36:46;;;;;;;7.30;2.35;;;7.60;99.90;;;;;;5026928;28;20136;-72
2022/09/21 01:39:13;;;;;;;5.63;2.55;;;7.60;99.90;;;;;;5055020;28;20063;-73
2022/09/21 01:41:43;;;;;;;7.47;2.72;;;7.60;99.90;;;;;;5011851;28;20507;-73
2022/09/21 01:44:18;;;;;;;7.90;2.63;;;7.60;99.90;;;;;;5024313;28;20049;-73
2022/09/21 01:46:45;;;;;;;6.68;2.63;;;7.60;99.90;;;;;;5034896;28;20052;-73
2022/09/21 01:49:19;;;;;;;6.78;2.33;;;7.60;99.90;;;;;;5008405;28;20048;-72
2022/09/21 01:51:50;;;;;;;6.47;2.97;;;7.60;99.90;;;;;;5055036;28;20041;-72
2022/09/21 01:54:29;;;;;;;9.82;2.58;;;7.60;99.90;;;;;;5023815;28;20502;-72
2022/09/21 01:57:13;;;;;;;9.98;2.72;;;7.50;99.90;;;;;;5024140;28;20565;-72
2022/09/21 01:59:46;;;;;;;7.72;2.85;;;7.50;99.90;;;;;;5023735;28;20175;-72
2022/09/21 02:02:31;;;;;;;7.70;2.78;;;7.50;99.90;;;;;;5025065;28;20045;-73
2022/09/21 02:05:04;;;;;;;7.78;2.63;;;7.50;99.90;;;;;;5036617;28;20525;-73
2022/09/21 02:07:34;;;;;;;5.80;2.75;;;7.50;99.90;;;;;;5007329;28;20136;-72
2022/09/21 02:10:02;;;;;;;8.13;2.65;;;7.50;99.90;;;;;;5021602;28;20398;-72
2022/09/21 02:12:31;;;;;;;6.22;2.70;;;7.50;99.90;;;;;;5025050;28;20141;-72
2022/09/21 02:14:57;;;;;;;6.80;2.60;;;7.50;99.90;;;;;;5040182;28;20395;-73
2022/09/21 02:17:30;;;;;;;5.65;2.47;;;7.50;99.90;;;;;;5007419;28;20077;-72
2022/09/21 02:20:16;;;;;;;6.78;2.90;;;7.50;99.90;;;;;;5055476;28;20452;-72
2022/09/21 02:23:03;;;;;;;6.68;2.60;;;7.40;99.90;;;;;;5055445;28;20132;-72
2022/09/21 02:25:35;;;;;;;5.60;2.50;;;7.50;99.90;;;;;;5025430;28;20045;-72
2022/09/21 02:28:07;;;;;;;7.28;2.80;;;7.40;99.90;;;;;;5022024;28;20048;-72
2022/09/21 02:30:36;;;;;;;7.13;3.20;;;7.40;99.90;;;;;;5021701;28;20132;-72
2022/09/21 02:33:31;;;;;;;6.28;2.55;;;7.40;99.90;;;;;;5020689;28;20420;-73
2022/09/21 02:36:11;;;;;;;5.40;2.53;;;7.30;99.90;;;;;;5036460;28;20114;-73
2022/09/21 02:38:46;;;;;;;6.30;2.30;;;7.30;99.90;;;;;;5026569;28;20049;-72
2022/09/21 02:41:26;;;;;;;11.23;2.65;;;7.30;99.90;;;;;;5025184;28;20132;-72
2022/09/21 02:44:05;;;;;;;5.93;2.63;;;7.60;99.90;;;;;;5025798;28;20465;-72
2022/09/21 02:46:53;;;;;;;6.25;2.97;;;7.20;99.90;;;;;;5034341;28;20060;-72
2022/09/21 02:49:25;;;;;;;6.28;2.60;;;7.20;99.90;;;;;;5024988;28;20128;-72
2022/09/21 02:51:55;;;;;;;7.28;2.60;;;7.30;99.90;;;;;;5006224;28;20063;-72
2022/09/21 02:54:25;;;;;;;8.05;2.50;;;7.20;99.90;;;;;;5021608;28;20418;-72
2022/09/21 02:56:52;;;;;;;6.90;2.65;;;7.20;99.90;;;;;;5019704;28;20094;-72
2022/09/21 02:59:21;;;;;;;8.00;2.85;;;7.10;99.90;;;;;;5039467;28;20402;-72
2022/09/21 03:01:47;;;;;;;8.38;2.70;;;7.20;99.90;;;;;;5021947;28;20042;-72
2022/09/21 03:04:12;;;;;;;8.48;2.50;;;7.10;99.90;;;;;;5039674;28;20040;-73
2022/09/21 03:06:38;;;;;;;5.55;2.28;;;7.10;99.90;;;;;;5055681;28;20041;-73
2022/09/21 03:09:04;;;;;;;6.43;2.55;;;7.30;99.90;;;;;;5005868;28;20049;-73
2022/09/21 03:11:30;;;;;;;7.20;2.22;;;7.10;99.90;;;;;;5006297;28;20253;-72
2022/09/21 03:13:56;;;;;;;7.63;2.60;;;7.00;99.90;;;;;;5038058;28;20063;-72
2022/09/21 03:16:24;;;;;;;5.50;2.55;;;7.00;99.90;;;;;;5020374;28;20136;-72
2022/09/21 03:18:50;;;;;;;5.05;2.40;;;7.00;99.90;;;;;;5023288;28;20051;-73
2022/09/21 03:21:15;;;;;;;6.95;2.55;;;6.90;99.90;;;;;;5040207;28;20049;-72
2022/09/21 03:23:41;;;;;;;5.93;2.40;;;6.90;99.90;;;;;;5024192;28;20085;-73
2022/09/21 03:26:07;;;;;;;5.90;2.50;;;6.90;99.90;;;;;;5022115;28;20042;-73
2022/09/21 03:28:33;;;;;;;5.28;2.20;;;6.90;99.90;;;;;;5022537;28;20037;-73
2022/09/21 03:30:59;;;;;;;5.28;2.47;;;6.90;99.90;;;;;;5025393;28;20069;-73
2022/09/21 03:33:25;;;;;;;5.72;2.40;;;6.80;99.90;;;;;;5023619;28;20084;-73
2022/09/21 03:35:51;;;;;;;5.95;2.42;;;6.80;99.90;;;;;;5025679;28;20081;-73
2022/09/21 03:38:18;;;;;;;7.47;2.40;;;6.80;99.90;;;;;;5023743;28;20662;-72
2022/09/21 03:40:45;;;;;;;7.88;2.50;;;6.80;99.90;;;;;;5019584;28;20041;-73
2022/09/21 03:43:11;;;;;;;5.78;2.45;;;6.80;99.90;;;;;;5017625;28;20056;-73
2022/09/21 03:45:39;;;;;;;5.65;2.10;;;6.80;99.90;;;;;;5025353;28;20045;-72
2022/09/21 03:48:06;;;;;;;7.32;2.40;;;6.70;99.90;;;;;;5022499;28;20051;-72
2022/09/21 03:50:35;;;;;;;6.70;2.30;;;6.70;99.90;;;;;;5013298;28;20080;-72
2022/09/21 03:53:00;;;;;;;5.00;2.10;;;6.70;99.90;;;;;;5016059;28;20048;-73
2022/09/21 03:55:26;;;;;;;5.82;2.20;;;6.70;99.90;;;;;;5017815;28;20045;-72
2022/09/21 03:57:52;;;;;;;6.72;2.58;;;6.70;99.90;;;;;;5012023;28;20556;-72
2022/09/21 04:00:19;;;;;;;4.70;2.28;;;6.70;99.90;;;;;;5036094;28;20045;-72
2022/09/21 04:02:44;;;;;;;6.47;2.30;;;6.70;99.90;;;;;;5034837;28;20449;-72
2022/09/21 04:05:13;;;;;;;6.10;2.35;;;6.60;99.90;;;;;;5035057;28;20037;-71
2022/09/21 04:07:40;;;;;;;8.10;2.30;;;6.60;99.90;;;;;;5020548;28;20041;-72
2022/09/21 04:10:12;;;;;;;4.10;1.90;;;6.60;99.90;;;;;;5036604;28;20168;-71
2022/09/21 04:12:42;;;;;;;7.03;2.20;;;6.60;99.90;;;;;;5023372;28;20467;-72
2022/09/21 04:15:10;;;;;;;7.40;2.33;;;6.60;99.90;;;;;;5026434;28;20034;-71
2022/09/21 04:17:36;;;;;;;4.50;2.10;;;6.50;99.90;;;;;;5022915;28;20060;-71
2022/09/21 04:20:03;;;;;;;4.18;1.98;;;6.60;99.90;;;;;;5039368;28;20049;-72
2022/09/21 04:22:30;;;;;;;5.55;2.30;;;6.50;99.90;;;;;;5025419;28;20045;-72
2022/09/21 04:24:56;;;;;;;5.97;2.47;;;6.50;99.90;;;;;;5057636;28;20111;-72
2022/09/21 04:27:22;;;;;;;5.97;2.30;;;6.50;99.90;;;;;;5026270;28;20054;-72
2022/09/21 04:29:48;;;;;;;5.53;2.17;;;6.50;99.90;;;;;;5024318;28;20041;-72
2022/09/21 04:32:14;;;;;;;6.70;2.50;;;6.50;99.90;;;;;;5025071;28;20045;-72
2022/09/21 04:34:40;;;;;;;6.20;2.58;;;6.50;99.90;;;;;;5056835;28;20041;-73
2022/09/21 04:37:10;;;;;;;8.63;2.42;;;6.50;99.90;;;;;;5025721;28;20049;-71
2022/09/21 04:39:36;;;;;;;7.38;2.20;;;6.40;99.90;;;;;;5023228;28;20049;-71
2022/09/21 04:42:03;;;;;;;5.32;2.00;;;6.40;99.90;;;;;;5040649;28;20120;-74
2022/09/21 04:44:29;;;;;;;4.75;2.20;;;6.40;99.90;;;;;;5057005;28;20072;-71
2022/09/21 04:46:56;;;;;;;6.07;2.53;;;6.30;99.90;;;;;;5021557;28;20061;-71
2022/09/21 04:49:22;;;;;;;4.38;1.83;;;6.80;99.90;;;;;;5023601;28;20274;-72
2022/09/21 04:51:48;;;;;;;6.72;2.35;;;6.30;99.90;;;;;;5022684;28;20487;-73
2022/09/21 04:54:14;;;;;;;5.78;2.63;;;6.30;99.90;;;;;;5016205;28;20045;-73
2022/09/21 04:56:40;;;;;;;7.22;2.13;;;6.70;99.90;;;;;;5024572;28;20045;-73
2022/09/21 04:59:05;;;;;;;5.88;2.38;;;6.30;99.90;;;;;;5008302;28;20049;-73
2022/09/21 05:01:32;;;;;;;4.72;2.20;;;6.30;99.90;;;;;;5022403;28;20076;-73
2022/09/21 05:04:00;;;;;;;7.35;2.50;;;6.30;99.90;;;;;;5018108;28;20041;-73
2022/09/21 05:06:30;;;;;;;5.53;2.40;;;6.90;99.90;;;;;;5024284;28;20414;-73
2022/09/21 05:11:41;;;;;;;7.50;2.63;;;6.20;99.90;;;;;;5024241;28;20046;-72
2022/09/21 05:14:07;;;;;;;5.20;1.92;;;6.60;99.90;;;;;;5012555;28;20045;-73
2022/09/21 05:16:34;;;;;;;5.40;2.00;;;6.20;99.90;;;;;;5035930;28;20133;-72
2022/09/21 05:18:59;;;;;;;8.20;2.65;;;6.20;99.90;;;;;;5023040;28;20140;-73
2022/09/21 05:21:25;;;;;;;6.43;2.40;;;6.20;99.90;;;;;;5019609;28;20506;-72
2022/09/21 05:23:51;;;;;;;6.85;2.40;;;6.20;99.90;;;;;;5019113;28;20618;-72
2022/09/21 05:26:17;;;;;;;4.72;1.98;;;6.10;99.90;;;;;;5017276;28;20224;-72
2022/09/21 05:28:43;;;;;;;7.13;2.10;;;6.10;99.90;;;;;;5022944;28;20155;-72
2022/09/21 05:31:51;;;;;;;8.38;2.67;;;6.10;99.90;;;;;;5014957;28;20053;-72
2022/09/21 05:34:35;;;;;;;7.35;2.50;;;6.10;99.90;;;;;;5018702;28;20085;-72
2022/09/21 05:37:28;;;;;;;5.90;2.28;;;6.10;99.90;;;;;;5005267;28;20053;-73
2022/09/21 05:39:54;;;;;;;6.45;2.58;;;6.00;99.90;;;;;;5017594;28;20128;-73
2022/09/21 05:42:20;;;;;;;8.70;2.72;;;6.00;99.90;;;;;;5021847;28;20046;-73
2022/09/21 05:44:48;;;;;;;5.13;2.40;;;6.00;99.90;;;;;;5011931;28;20041;-73
2022/09/21 05:47:35;;;;;;;5.13;2.53;;;6.30;99.90;;;;;;5034801;28;20112;-72
2022/09/21 05:50:22;;;;;;;4.97;2.08;;;6.00;99.90;;;;;;5008629;28;20049;-72
2022/09/21 05:53:23;;;;;;;5.75;2.22;;;6.10;99.90;;;;;;5034304;28;20075;-72
2022/09/21 05:55:56;;;;;;;6.85;2.45;;;6.10;99.90;;;;;;5035053;28;20526;-73
2022/09/21 05:58:33;;;;;;;4.80;2.10;;;6.30;99.90;;;;;;5015154;28;20087;-73
2022/09/21 06:00:58;;;;;;;5.10;2.20;;;6.70;99.90;;;;;;5019220;28;20260;-73
2022/09/21 06:03:34;;;;;;;5.47;2.40;;;6.70;99.90;;;;;;5019590;28;20136;-72
2022/09/21 06:06:01;;;;;;;7.30;2.45;;;6.80;99.90;;;;;;5017862;28;20064;-73
2022/09/21 06:08:27;;;;;;;7.57;2.35;;;6.90;99.90;;;;;;5022473;28;20103;-73
2022/09/21 06:10:54;;;;;;;5.82;2.10;;;6.80;99.90;;;;;;4999597;28;20029;-74
2022/09/21 06:13:20;;;;;;;5.40;2.22;;;6.80;99.90;;;;;;5038898;28;20119;-72
2022/09/21 06:15:46;;;;;;;6.15;2.38;;;6.80;99.90;;;;;;5038037;28;20046;-72
2022/09/21 06:18:12;;;;;;;5.10;2.15;;;6.80;99.90;;;;;;5022481;28;20136;-73
2022/09/21 06:20:37;;;;;;;6.38;2.55;;;7.00;99.90;;;;;;5023344;28;20132;-73
2022/09/21 06:23:08;;;;;;;10.15;2.30;;;6.80;99.90;;;;;;5020664;28;20041;-73
2022/09/21 06:25:34;;;;;;;7.05;2.45;;;6.80;99.90;;;;;;5026901;28;20045;-73
2022/09/21 06:28:10;;;;;;;5.47;2.17;;;6.80;99.90;;;;;;5014133;28;20413;-73
2022/09/21 06:30:38;;;;;;;5.45;2.20;;;6.90;99.90;;;;;;5022571;28;20525;-74
2022/09/21 06:33:05;;;;;;;8.80;2.80;;;6.90;99.90;;;;;;5019147;28;20165;-72
2022/09/21 06:35:33;;;;;;;7.53;2.40;;;6.90;99.90;;;;;;5031195;28;20041;-72
2022/09/21 06:38:00;;;;;;;6.00;2.05;;;6.90;99.90;;;;;;5015560;28;20418;-74
2022/09/21 06:40:30;;;;;;;6.35;2.63;;;7.00;99.90;;;;;;5016380;28;20103;-73
2022/09/21 06:43:01;;;;;;;8.02;3.10;;;7.00;99.90;;;;;;5018032;28;20043;-73
2022/09/21 06:45:28;;;;;;;8.63;2.80;;;7.00;99.90;;;;;;5033441;28;20740;-72
2022/09/21 06:47:54;;;;;;;13.05;3.80;;;7.10;99.90;;;;;;5016085;28;20056;-73
2022/09/21 06:50:20;;;;;;;9.18;3.22;;;7.20;99.90;;;;;;5000783;28;20140;-72
2022/09/21 06:52:46;;;;;;;22.45;4.93;;;7.30;99.90;;;;;;5015594;28;20112;-73
2022/09/21 06:55:13;;;;;;;9.35;3.58;;;7.30;99.90;;;;;;5015213;28;20731;-73
2022/09/21 06:57:39;;;;;;;8.55;3.50;;;7.40;99.90;;;;;;5014158;28;20115;-73
2022/09/21 07:00:08;;;;;;;6.90;3.33;;;7.50;99.90;;;;;;5010569;28;21502;-73
2022/09/21 07:02:34;;;;;;;11.68;3.63;;;7.70;99.90;;;;;;4993013;28;20073;-73
2022/09/21 07:04:59;;;;;;;8.63;3.45;;;8.10;99.90;;;;;;4995110;28;20121;-73
2022/09/21 07:07:29;;;;;;;6.90;2.83;;;8.10;99.90;;;;;;4996287;28;20179;-74
2022/09/21 07:09:57;;;;;;;7.90;3.08;;;8.40;99.90;;;;;;5008505;28;20052;-68
2022/09/21 07:12:24;;;;;;;8.68;3.45;;;8.60;99.90;;;;;;4997744;28;20049;-68
2022/09/21 07:14:49;;;;;;;12.77;3.58;;;8.90;99.90;;;;;;4996530;28;20057;-68
2022/09/21 07:17:15;;;;;;;8.77;3.35;;;9.10;99.90;;;;;;5000668;28;20420;-68
2022/09/21 07:19:41;;;;;;;11.95;2.53;;;9.40;99.90;;;;;;4993259;28;20589;-69
2022/09/21 07:22:07;;;;;;;7.68;2.78;;;9.60;99.90;;;;;;5013410;28;20540;-69
2022/09/21 07:24:32;;;;;;;6.88;2.40;;;9.80;99.90;;;;;;4998986;28;20075;-69
2022/09/21 07:26:58;;;;;;;10.90;2.55;;;10.10;99.90;;;;;;4997394;28;20049;-69
2022/09/21 07:29:24;;;;;;;9.23;2.67;;;10.30;99.90;;;;;;4994736;28;20103;-69
2022/09/21 07:31:50;;;;;;;5.65;1.98;;;10.50;99.90;;;;;;4989750;28;20053;-70
2022/09/21 07:34:16;;;;;;;6.15;1.70;;;10.70;99.90;;;;;;4991894;28;20049;-68
2022/09/21 07:36:42;;;;;;;8.73;2.20;;;11.00;99.90;;;;;;4981316;28;20103;-68
2022/09/21 07:39:09;;;;;;;6.70;1.90;;;11.10;99.90;;;;;;4999482;28;20053;-68
2022/09/21 07:41:35;;;;;;;8.13;1.70;;;11.30;99.90;;;;;;5016535;28;20104;-69
2022/09/21 07:44:02;;;;;;;9.00;2.15;;;11.60;99.90;;;;;;5007206;28;20052;-69
2022/09/21 07:46:28;;;;;;;10.18;1.70;;;11.70;99.90;;;;;;4988322;28;20449;-69
2022/09/21 07:48:55;;;;;;;8.15;1.90;;;11.90;99.90;;;;;;5036304;28;20037;-68
2022/09/21 07:51:21;;;;;;;5.80;1.83;;;12.40;99.90;;;;;;5023459;28;20049;-69
2022/09/21 07:53:47;;;;;;;6.35;1.45;;;12.20;99.90;;;;;;5018043;28;20046;-68
2022/09/21 07:56:16;;;;;;;7.15;1.38;;;12.30;99.90;;;;;;5023322;28;20048;-68
2022/09/21 08:01:28;;;;;;;6.22;2.15;;;12.70;99.90;;;;;;5019680;28;20064;-69
2022/09/21 08:03:55;;;;;;;7.20;1.70;;;12.90;99.90;;;;;;5052489;28;20489;-68
2022/09/21 08:06:23;;;;;;;9.77;2.00;;;13.00;99.90;;;;;;5022137;28;20077;-69
2022/09/21 08:08:49;;;;;;;7.43;1.73;;;13.20;99.90;;;;;;5024642;28;20091;-69
2022/09/21 08:11:23;;;;;;;9.73;2.20;;;13.30;99.90;;;;;;5035849;28;20708;-69
2022/09/21 08:13:52;;;;;;;10.35;1.70;;;13.40;99.90;;;;;;5037984;28;20056;-69
2022/09/21 08:16:18;;;;;;;8.60;2.00;;;13.50;99.90;;;;;;5020201;28;20053;-69
2022/09/21 08:18:44;;;;;;;8.63;1.70;;;13.60;99.90;;;;;;5017215;28;20053;-69
2022/09/21 08:21:11;;;;;;;6.40;1.73;;;13.70;99.90;;;;;;5012948;28;20416;-69
2022/09/21 08:23:41;;;;;;;7.38;1.55;;;13.80;99.90;;;;;;5015037;28;20472;-69
2022/09/21 08:26:09;;;;;;;6.97;1.40;;;13.90;99.90;;;;;;5018516;28;20050;-69
2022/09/21 08:28:35;;;;;;;8.30;1.40;;;14.10;99.90;;;;;;5017164;28;20041;-69
2022/09/21 08:31:07;;;;;;;9.30;1.75;;;14.20;99.90;;;;;;5017603;28;20510;-69
2022/09/21 08:33:34;;;;;;;7.05;1.45;;;14.30;99.90;;;;;;5016462;28;20137;-68
2022/09/21 08:36:01;;;;;;;7.75;1.83;;;14.30;99.90;;;;;;5012614;28;22322;-69
2022/09/21 08:38:34;;;;;;;5.82;1.17;;;14.40;99.90;;;;;;5019122;28;20040;-69
2022/09/21 08:41:10;;;;;;;11.63;1.50;;;14.50;99.90;;;;;;5021426;28;20136;-68
2022/09/21 08:43:41;;;;;;;9.77;1.30;;;14.50;99.90;;;;;;5030969;28;20418;-68
2022/09/21 08:46:21;;;;;;;9.93;1.33;;;14.60;99.90;;;;;;5018305;28;20687;-69
2022/09/21 08:48:55;;;;;;;11.20;1.67;;;14.70;99.90;;;;;;5021828;28;20060;-69
2022/09/21 08:51:25;;;;;;;10.68;2.53;;;14.70;99.90;;;;;;5049485;28;20077;-68
2022/09/21 08:53:56;;;;;;;8.60;1.20;;;14.90;99.90;;;;;;5020944;28;20566;-68
2022/09/21 08:56:23;;;;;;;6.93;1.60;;;14.90;99.90;;;;;;5020513;28;20053;-69
2022/09/21 08:58:49;;;;;;;7.22;1.58;;;15.00;99.90;;;;;;5019173;28;20045;-68
2022/09/21 09:01:18;;;;;;;10.20;1.17;;;15.10;99.90;;;;;;5015541;28;20041;-69
2022/09/21 09:03:53;;;;;;;5.13;1.10;;;15.10;99.90;;;;;;5030245;28;20679;-69
2022/09/21 09:06:27;;;;;;;7.00;1.05;;;15.20;99.90;;;;;;5014180;28;20049;-68
2022/09/21 09:09:02;;;;;;;4.65;0.98;;;15.20;99.90;;;;;;5017027;28;20129;-69
2022/09/21 09:11:43;;;;;;;8.32;1.10;;;15.20;99.90;;;;;;5023391;28;20041;-69
2022/09/21 09:14:33;;;;;;;4.45;0.93;;;15.20;99.90;;;;;;5018005;28;20064;-69
2022/09/21 09:17:37;;;;;;;6.78;0.90;;;15.30;99.90;;;;;;5015862;28;20061;-69
2022/09/21 09:20:25;;;;;;;9.80;1.45;;;15.30;99.90;;;;;;5037857;28;20058;-69
2022/09/21 09:23:03;;;;;;;8.20;1.08;;;15.30;99.90;;;;;;5053351;28;20107;-69
2022/09/21 09:25:38;;;;;;;5.43;1.05;;;15.30;99.90;;;;;;5036696;28;20053;-69
2022/09/21 09:28:15;;;;;;;6.70;1.20;;;15.30;99.90;;;;;;5013419;28;20696;-69
2022/09/21 09:30:41;;;;;;;6.25;1.20;;;15.40;99.90;;;;;;5020839;28;20056;-69
2022/09/21 09:33:21;;;;;;;5.50;0.80;;;15.40;99.90;;;;;;5016936;28;20041;-69
2022/09/21 09:36:02;;;;;;;8.18;1.00;;;15.50;99.90;;;;;;5029807;28;20128;-69
2022/09/21 09:38:56;;;;;;;10.18;2.00;;;15.50;99.90;;;;;;5055023;28;20045;-70
2022/09/21 09:41:40;;;;;;;6.75;0.90;;;15.60;99.90;;;;;;5021438;28;20134;-70
2022/09/21 09:44:40;;;;;;;5.55;0.85;;;15.60;99.90;;;;;;5000187;28;20059;-70
2022/09/21 09:47:11;;;;;;;6.40;0.70;;;15.60;99.90;;;;;;5036231;28;20038;-70
2022/09/21 09:50:18;;;;;;;4.03;0.93;;;15.60;99.90;;;;;;5021531;28;20045;-69
2022/09/21 09:52:46;;;;;;;7.55;1.00;;;15.60;99.90;;;;;;5019093;28;20045;-69
2022/09/21 09:55:37;;;;;;;4.68;1.00;;;15.70;99.90;;;;;;5018957;28;20049;-70
2022/09/21 09:58:03;;;;;;;4.50;0.68;;;15.70;99.90;;;;;;5019349;28;20057;-70
2022/09/21 10:00:29;;;;;;;9.57;1.30;;;15.70;99.90;;;;;;5021569;28;20084;-70
2022/09/21 10:02:59;;;;;;;7.93;1.13;;;15.70;99.90;;;;;;5000779;28;20482;-70
2022/09/21 10:05:33;;;;;;;7.63;0.90;;;15.80;99.90;;;;;;5017595;28;20087;-70
2022/09/21 10:07:59;;;;;;;5.65;0.93;;;15.80;99.90;;;;;;5020403;28;20054;-70
2022/09/21 10:10:28;;;;;;;6.60;1.00;;;15.90;99.90;;;;;;5000172;28;20494;-70
2022/09/21 10:13:01;;;;;;;4.57;0.80;;;15.90;99.90;;;;;;5018449;28;20284;-70
2022/09/21 10:15:28;;;;;;;7.53;0.98;;;16.00;99.90;;;;;;5022417;28;20107;-71
2022/09/21 10:18:05;;;;;;;5.15;0.88;;;16.00;99.90;;;;;;5021414;28;20088;-69
2022/09/21 10:20:32;;;;;;;6.72;1.05;;;15.90;99.90;;;;;;5018651;28;20041;-70
2022/09/21 10:22:59;;;;;;;3.92;0.90;;;15.90;99.90;;;;;;5020069;28;20065;-70
2022/09/21 10:25:25;;;;;;;5.82;0.85;;;15.90;99.90;;;;;;5017741;28;20037;-70
2022/09/21 10:27:51;;;;;;;5.97;0.93;;;15.90;99.90;;;;;;5018298;28;20099;-70
2022/09/21 10:30:37;;;;;;;4.70;0.82;;;15.90;99.90;;;;;;5020061;28;20038;-70
2022/09/21 10:33:16;;;;;;;6.13;0.80;;;15.90;99.90;;;;;;5018630;28;20412;-70
2022/09/21 10:35:51;;;;;;;4.68;0.68;;;15.90;99.90;;;;;;5050757;28;20581;-70
2022/09/21 10:38:19;;;;;;;7.18;0.88;;;16.00;99.90;;;;;;5001741;28;20053;-69
2022/09/21 10:40:46;;;;;;;3.85;0.80;;;16.00;99.90;;;;;;5016623;28;20071;-70
2022/09/21 10:43:34;;;;;;;5.30;1.02;;;16.00;99.90;;;;;;5025556;28;20694;-69
2022/09/21 10:46:01;;;;;;;4.70;0.65;;;16.00;99.90;;;;;;5021784;28;20053;-70
2022/09/21 10:48:27;;;;;;;5.55;1.00;;;16.10;99.90;;;;;;5004161;28;20414;-70
2022/09/21 10:50:55;;;;;;;2.90;1.00;;;16.00;99.90;;;;;;5045029;28;20132;-70
2022/09/21 10:53:35;;;;;;;5.32;0.70;;;16.10;99.90;;;;;;5019125;28;20049;-70
2022/09/21 10:56:17;;;;;;;5.88;0.85;;;16.10;99.90;;;;;;5018811;28;20132;-70
2022/09/21 10:59:09;;;;;;;6.78;1.00;;;16.10;99.90;;;;;;5035000;28;20045;-70
2022/09/21 11:01:35;;;;;;;4.32;0.85;;;16.20;99.90;;;;;;5014789;28;20667;-69
2022/09/21 11:04:26;;;;;;;4.80;0.63;;;16.10;99.90;;;;;;5019835;28;20053;-70
2022/09/21 11:07:01;;;;;;;4.32;0.52;;;16.10;99.90;;;;;;5016180;28;20576;-70
2022/09/21 11:09:38;;;;;;;4.55;0.80;;;16.10;99.90;;;;;;5017884;28;20095;-69
2022/09/21 11:12:39;;;;;;;5.03;0.95;;;16.10;99.90;;;;;;5035758;28;20041;-70
2022/09/21 11:15:29;;;;;;;5.72;0.98;;;16.00;99.90;;;;;;5009788;28;20049;-70
2022/09/21 11:18:13;;;;;;;2.90;0.57;;;16.00;99.90;;;;;;5034365;28;20046;-70
2022/09/21 11:20:51;;;;;;;6.07;0.90;;;16.00;99.90;;;;;;5001260;28;20042;-70
2022/09/21 11:23:43;;;;;;;4.45;0.80;;;15.90;99.90;;;;;;5034362;28;20425;-69
2022/09/21 11:26:30;;;;;;;4.45;0.60;;;16.00;99.90;;;;;;5030855;28;20054;-70
2022/09/21 11:29:11;;;;;;;5.85;1.08;;;16.00;99.90;;;;;;5045165;28;20041;-70
2022/09/21 11:31:51;;;;;;;7.07;1.27;;;16.10;99.90;;;;;;5019207;28;20118;-70
2022/09/21 11:34:26;;;;;;;3.90;0.80;;;16.10;99.90;;;;;;5019443;28;20068;-70
2022/09/21 11:37:00;;;;;;;4.30;0.80;;;16.10;99.90;;;;;;5051232;28;20496;-70
2022/09/21 11:39:39;;;;;;;4.75;1.00;;;16.20;99.90;;;;;;5019066;28;20050;-70
2022/09/21 11:42:47;;;;;;;3.45;0.70;;;16.20;99.90;;;;;;5017773;28;20038;-70
2022/09/21 11:45:36;;;;;;;4.05;0.80;;;16.30;99.90;;;;;;5000429;28;20619;-70
2022/09/21 11:48:21;;;;;;;3.90;0.55;;;16.30;99.90;;;;;;4998738;28;21463;-70
2022/09/21 11:50:56;;;;;;;7.15;0.80;;;16.30;99.90;;;;;;5019693;28;20053;-70
2022/09/21 11:53:39;;;;;;;4.70;0.77;;;16.40;99.90;;;;;;5035620;28;20163;-70
2022/09/21 11:56:16;;;;;;;5.90;0.73;;;16.40;99.90;;;;;;5018739;28;20103;-70
2022/09/21 11:59:05;;;;;;;5.68;1.35;;;16.60;99.90;;;;;;5046954;28;20045;-70
2022/09/21 12:01:54;;;;;;;5.10;0.90;;;16.70;99.90;;;;;;5027931;28;20112;-69
2022/09/21 12:04:44;;;;;;;3.20;0.90;;;16.80;99.90;;;;;;5011051;28;20040;-70
2022/09/21 12:07:19;;;;;;;7.15;0.80;;;16.90;99.90;;;;;;5017186;28;20042;-70
2022/09/21 12:09:53;;;;;;;6.90;0.90;;;16.90;99.90;;;;;;5018550;28;20045;-69
2022/09/21 12:12:41;;;;;;;7.03;1.10;;;16.90;99.90;;;;;;5015113;28;20416;-70
2022/09/21 12:15:11;;;;;;;3.33;0.70;;;17.00;99.90;;;;;;5015161;28;21362;-70
2022/09/21 12:18:02;;;;;;;5.47;0.83;;;16.90;99.90;;;;;;4991186;28;20111;-69
2022/09/21 12:20:55;;;;;;;6.18;0.80;;;16.90;99.90;;;;;;5034304;28;20353;-69
2022/09/21 12:23:34;;;;;;;3.58;0.70;;;16.90;99.90;;;;;;5018874;28;20076;-70
2022/09/21 12:26:05;;;;;;;4.70;0.75;;;16.90;99.90;;;;;;5045798;28;20038;-70
2022/09/21 12:28:49;;;;;;;7.63;0.93;;;17.00;99.90;;;;;;5016479;28;20570;-70
2022/09/21 12:31:18;;;;;;;5.40;0.70;;;17.00;99.90;;;;;;5018425;28;20465;-69
2022/09/21 12:34:00;;;;;;;7.13;0.85;;;17.00;99.90;;;;;;5034252;28;20041;-69
2022/09/21 12:36:36;;;;;;;3.30;0.65;;;17.00;99.90;;;;;;5012995;28;20540;-69
2022/09/21 12:39:43;;;;;;;3.58;0.75;;;16.90;99.90;;;;;;5007700;28;20473;-70
2022/09/21 12:42:37;;;;;;;6.25;1.00;;;16.90;99.90;;;;;;5030441;28;20049;-69
2022/09/21 12:45:15;;;;;;;3.53;0.75;;;16.80;99.90;;;;;;5013205;28;20653;-69
2022/09/21 12:47:52;;;;;;;4.13;0.75;;;16.80;99.90;;;;;;5017223;28;20687;-69
2022/09/21 12:51:10;;;;;;;4.55;0.70;;;16.80;99.90;;;;;;5011735;28;20044;-69
2022/09/21 12:53:40;;;;;;;7.68;0.80;;;16.70;99.90;;;;;;4994717;28;20527;-70
2022/09/21 12:56:14;;;;;;;5.00;0.93;;;16.70;99.90;;;;;;5009577;28;20042;-69
2022/09/21 12:58:52;;;;;;;9.13;1.48;;;16.60;99.90;;;;;;5011652;28;20533;-70
2022/09/21 13:01:32;;;;;;;3.85;0.70;;;16.60;99.90;;;;;;5028591;28;20405;-70
2022/09/21 13:04:15;;;;;;;4.63;0.80;;;16.60;99.90;;;;;;5013651;28;20069;-69
2022/09/21 13:06:52;;;;;;;5.95;0.63;;;16.50;99.90;;;;;;5024118;28;20344;-70
2022/09/21 13:09:20;;;;;;;2.70;0.70;;;16.50;99.90;;;;;;5013811;28;20429;-70
2022/09/21 13:11:55;;;;;;;4.72;0.73;;;16.40;99.90;;;;;;5028018;28;20053;-69
2022/09/21 13:14:24;;;;;;;3.28;0.65;;;16.40;99.90;;;;;;5008826;28;20049;-68
2022/09/21 13:16:56;;;;;;;3.58;0.70;;;16.40;99.90;;;;;;5012114;28;20660;-69
2022/09/21 13:19:24;;;;;;;2.92;0.68;;;16.40;99.90;;;;;;5006762;28;20057;-70
2022/09/21 13:22:18;;;;;;;4.82;0.80;;;16.40;99.90;;;;;;5009119;28;20041;-69
2022/09/21 13:25:00;;;;;;;3.45;0.80;;;16.30;99.90;;;;;;5007590;28;20038;-70
2022/09/21 13:28:06;;;;;;;4.25;0.73;;;16.40;99.90;;;;;;5013345;28;20045;-69